createdAt,value
2023-04-30T00:01:21.810Z,9.52
2023-04-30T00:03:48.302Z,9.40
2023-04-30T00:07:01.530Z,9.48
2023-04-30T00:09:27.908Z,9.27
2023-04-30T00:11:54.241Z,8.73
2023-04-30T00:14:20.965Z,9.73
2023-04-30T00:16:47.400Z,9.55
2023-04-30T00:19:13.763Z,8.85
2023-04-30T00:21:40.126Z,8.73
2023-04-30T00:24:06.429Z,8.82
2023-04-30T00:26:32.728Z,9.35
2023-04-30T00:28:59.109Z,10.10
2023-04-30T00:31:25.662Z,8.73
2023-04-30T00:33:51.984Z,9.27
2023-04-30T00:36:18.252Z,9.18
2023-04-30T00:38:44.582Z,9.63
2023-04-30T00:41:10.924Z,9.27
2023-04-30T00:43:37.200Z,9.45
2023-04-30T00:46:05.287Z,9.45
2023-04-30T00:48:31.700Z,10.18
2023-04-30T00:50:58.172Z,10.63
2023-04-30T00:53:24.911Z,9.05
2023-04-30T00:55:51.739Z,8.88
2023-04-30T00:58:18.387Z,9.70
2023-04-30T01:00:47.152Z,9.77
2023-04-30T01:03:14.255Z,9.57
2023-04-30T01:05:40.632Z,9.50
2023-04-30T01:08:08.432Z,8.55
2023-04-30T01:11:12.403Z,10.85
2023-04-30T01:13:55.558Z,10.90
2023-04-30T01:16:33.203Z,11.10
2023-04-30T01:19:05.070Z,10.52
2023-04-30T01:21:33.234Z,11.40
2023-04-30T01:24:18.082Z,10.98
2023-04-30T01:27:18.481Z,10.18
2023-04-30T01:29:44.843Z,10.93
2023-04-30T01:32:11.532Z,10.27
2023-04-30T01:34:38.075Z,10.45
2023-04-30T01:37:16.995Z,11.63
2023-04-30T01:39:49.348Z,10.90
2023-04-30T01:42:24.136Z,11.73
2023-04-30T01:45:09.234Z,11.45
2023-04-30T01:48:17.600Z,11.02
2023-04-30T01:51:03.994Z,11.52
2023-04-30T01:53:41.887Z,11.15
2023-04-30T01:56:27.183Z,10.35
2023-04-30T01:58:54.413Z,11.77
2023-04-30T02:01:33.095Z,10.93
2023-04-30T02:03:59.680Z,11.90
2023-04-30T02:06:30.117Z,9.55
2023-04-30T02:09:02.562Z,11.98
2023-04-30T02:11:29.582Z,12.23
2023-04-30T02:13:55.845Z,11.38
2023-04-30T02:16:22.412Z,11.70
2023-04-30T02:18:48.817Z,11.85
2023-04-30T02:21:15.164Z,11.80
2023-04-30T02:23:41.632Z,10.57
2023-04-30T02:26:07.975Z,10.98
2023-04-30T02:28:34.349Z,12.32
2023-04-30T02:31:00.921Z,11.93
2023-04-30T02:33:27.236Z,12.40
2023-04-30T02:35:55.077Z,12.57
2023-04-30T02:38:21.456Z,11.65
2023-04-30T02:40:47.796Z,11.57
2023-04-30T02:43:14.081Z,13.18
2023-04-30T02:45:41.281Z,12.73
2023-04-30T02:48:07.724Z,13.02
2023-04-30T02:50:34.137Z,13.93
2023-04-30T02:53:00.567Z,12.52
2023-04-30T02:55:27.004Z,12.18
2023-04-30T02:57:53.360Z,13.07
2023-04-30T03:00:19.884Z,13.07
2023-04-30T03:02:46.490Z,12.25
2023-04-30T03:05:13.202Z,12.85
2023-04-30T03:07:39.508Z,13.23
2023-04-30T03:10:06.585Z,12.85
2023-04-30T03:12:32.938Z,13.35
2023-04-30T03:14:59.273Z,13.02
2023-04-30T03:17:25.713Z,13.63
2023-04-30T03:19:52.279Z,13.75
2023-04-30T03:22:23.633Z,14.13
2023-04-30T03:24:50.043Z,13.57
2023-04-30T03:27:17.038Z,13.57
2023-04-30T03:29:43.396Z,15.00
2023-04-30T03:32:09.696Z,14.73
2023-04-30T03:34:36.019Z,14.55
2023-04-30T03:37:03.843Z,14.48
2023-04-30T03:39:30.383Z,14.75
2023-04-30T03:41:56.722Z,14.68
2023-04-30T03:44:23.182Z,14.25
2023-04-30T03:46:49.521Z,14.60
2023-04-30T03:49:16.211Z,15.18
2023-04-30T03:51:42.727Z,15.57
2023-04-30T03:54:09.308Z,14.30
2023-04-30T03:56:37.269Z,14.68
2023-04-30T03:59:04.412Z,15.15
2023-04-30T04:01:30.877Z,14.95
2023-04-30T04:03:57.399Z,15.13
2023-04-30T04:06:23.988Z,14.70
2023-04-30T04:08:50.375Z,15.90
2023-04-30T04:11:16.757Z,14.75
2023-04-30T04:13:43.092Z,14.77
2023-04-30T04:16:09.709Z,14.63
2023-04-30T04:18:36.512Z,15.75
2023-04-30T04:21:02.974Z,14.77
2023-04-30T04:23:29.355Z,14.93
2023-04-30T04:25:55.949Z,15.65
2023-04-30T04:28:22.262Z,14.65
2023-04-30T04:30:49.238Z,14.02
2023-04-30T04:33:16.156Z,13.68
2023-04-30T04:35:42.457Z,13.63
2023-04-30T04:38:09.354Z,15.43
2023-04-30T04:40:35.937Z,15.02
2023-04-30T04:43:02.306Z,13.57
2023-04-30T04:45:28.690Z,14.20
2023-04-30T04:47:55.107Z,14.45
2023-04-30T04:50:21.563Z,14.75
2023-04-30T04:52:47.945Z,14.23
2023-04-30T04:55:14.441Z,13.85
2023-04-30T04:57:41.914Z,14.35
2023-04-30T05:00:09.741Z,13.10
2023-04-30T05:02:36.235Z,14.27
2023-04-30T05:05:02.987Z,14.32
2023-04-30T05:07:29.917Z,13.90
2023-04-30T05:09:56.764Z,13.68
2023-04-30T05:12:23.398Z,14.18
2023-04-30T05:14:51.242Z,13.32
2023-04-30T05:17:17.644Z,13.35
2023-04-30T05:19:44.129Z,13.07
2023-04-30T05:22:10.816Z,13.65
2023-04-30T05:24:37.141Z,12.80
2023-04-30T05:27:05.044Z,13.02
2023-04-30T05:29:31.743Z,13.32
2023-04-30T05:31:58.158Z,12.88
2023-04-30T05:34:24.603Z,12.00
2023-04-30T05:36:50.934Z,12.95
2023-04-30T05:39:17.437Z,12.25
2023-04-30T05:41:43.905Z,13.10
2023-04-30T05:44:10.260Z,12.98
2023-04-30T05:46:36.889Z,12.27
2023-04-30T05:49:03.212Z,11.32
2023-04-30T05:51:29.709Z,12.93
2023-04-30T05:53:57.398Z,11.77
2023-04-30T05:56:24.794Z,12.18
2023-04-30T05:58:52.450Z,12.15
2023-04-30T06:01:23.038Z,11.77
2023-04-30T06:03:49.398Z,11.98
2023-04-30T06:06:15.932Z,11.93
2023-04-30T06:08:45.061Z,11.18
2023-04-30T06:11:12.986Z,10.90
2023-04-30T06:13:40.081Z,11.63
2023-04-30T06:16:07.951Z,10.38
2023-04-30T06:18:34.345Z,9.85
2023-04-30T06:21:00.730Z,10.23
2023-04-30T06:23:27.175Z,10.35
2023-04-30T06:25:53.491Z,10.85
2023-04-30T06:28:19.875Z,10.23
2023-04-30T06:30:46.347Z,10.27
2023-04-30T06:33:12.800Z,9.45
2023-04-30T06:35:40.392Z,9.32
2023-04-30T06:38:06.808Z,8.85
2023-04-30T06:40:33.771Z,9.93
2023-04-30T06:43:00.076Z,9.38
2023-04-30T06:45:26.561Z,7.75
2023-04-30T06:47:53.397Z,8.35
2023-04-30T06:50:21.385Z,8.85
2023-04-30T06:52:47.951Z,9.05
2023-04-30T06:55:14.557Z,8.48
2023-04-30T06:57:41.017Z,8.48
2023-04-30T07:00:08.702Z,7.90
2023-04-30T07:02:35.951Z,7.60
2023-04-30T07:07:52.953Z,8.98
2023-04-30T07:10:19.417Z,8.02
2023-04-30T07:12:45.788Z,8.32
2023-04-30T07:15:12.182Z,7.30
2023-04-30T07:17:38.616Z,7.53
2023-04-30T07:20:05.731Z,7.70
2023-04-30T07:22:32.092Z,7.32
2023-04-30T07:24:58.520Z,6.95
2023-04-30T07:27:25.146Z,6.40
2023-04-30T07:29:51.482Z,6.85
2023-04-30T07:32:17.837Z,6.85
2023-04-30T07:34:44.155Z,6.57
2023-04-30T07:37:10.574Z,6.07
2023-04-30T07:39:39.931Z,6.63
2023-04-30T07:42:06.628Z,6.15
2023-04-30T07:44:32.922Z,6.47
2023-04-30T07:46:59.254Z,5.95
2023-04-30T07:49:25.827Z,6.10
2023-04-30T07:51:52.149Z,5.00
2023-04-30T07:54:18.561Z,4.95
2023-04-30T07:56:44.929Z,4.50
2023-04-30T07:59:11.267Z,5.10
2023-04-30T08:01:37.621Z,4.65
2023-04-30T08:04:04.222Z,4.50
2023-04-30T08:06:30.698Z,3.40
2023-04-30T08:08:57.293Z,4.45
2023-04-30T08:11:23.697Z,4.07
2023-04-30T08:13:50.253Z,3.67
2023-04-30T08:16:17.021Z,3.70
2023-04-30T08:18:44.851Z,3.15
2023-04-30T08:21:12.365Z,3.85
2023-04-30T08:23:38.739Z,3.40
2023-04-30T08:26:05.320Z,3.50
2023-04-30T08:28:31.693Z,3.13
2023-04-30T08:30:58.048Z,3.58
2023-04-30T08:33:24.398Z,3.28
2023-04-30T08:35:50.980Z,3.55
2023-04-30T08:38:18.244Z,3.13
2023-04-30T08:40:56.371Z,3.50
2023-04-30T08:43:23.322Z,3.00
2023-04-30T08:45:51.159Z,2.72
2023-04-30T08:48:19.068Z,2.70
2023-04-30T08:50:45.817Z,3.53
2023-04-30T08:53:17.516Z,3.00
2023-04-30T08:55:44.548Z,2.67
2023-04-30T08:58:10.911Z,2.88
2023-04-30T09:00:38.595Z,2.40
2023-04-30T09:03:05.877Z,2.78
2023-04-30T09:05:32.212Z,2.83
2023-04-30T09:08:03.752Z,2.75
2023-04-30T09:10:34.974Z,2.55
2023-04-30T09:13:03.573Z,2.35
2023-04-30T09:15:31.856Z,2.13
2023-04-30T09:18:08.924Z,2.30
2023-04-30T09:20:35.884Z,2.00
2023-04-30T09:23:10.685Z,2.00
2023-04-30T09:25:43.567Z,1.83
2023-04-30T09:28:11.254Z,1.90
2023-04-30T09:30:37.959Z,1.77
2023-04-30T09:33:04.806Z,1.73
2023-04-30T09:35:39.028Z,1.77
2023-04-30T09:38:06.340Z,1.60
2023-04-30T09:40:41.228Z,1.65
2023-04-30T09:43:08.453Z,1.75
2023-04-30T09:45:48.882Z,1.98
2023-04-30T09:48:21.263Z,1.50
2023-04-30T09:50:49.032Z,1.45
2023-04-30T09:53:19.194Z,1.40
2023-04-30T09:55:50.475Z,1.60
2023-04-30T09:58:18.976Z,1.70
2023-04-30T10:00:46.257Z,1.40
2023-04-30T10:03:14.618Z,1.55
2023-04-30T10:05:43.356Z,2.05
2023-04-30T10:08:18.486Z,1.90
2023-04-30T10:10:48.514Z,1.90
2023-04-30T10:13:19.889Z,1.55
2023-04-30T10:15:51.254Z,1.40
2023-04-30T10:18:28.928Z,1.60
2023-04-30T10:20:56.870Z,1.65
2023-04-30T10:23:24.208Z,1.52
2023-04-30T10:25:51.626Z,1.70
2023-04-30T10:28:18.010Z,2.08
2023-04-30T10:30:44.532Z,1.83
2023-04-30T10:33:17.105Z,1.73
2023-04-30T10:36:00.306Z,1.70
2023-04-30T10:38:30.813Z,1.52
2023-04-30T10:41:03.582Z,1.80
2023-04-30T10:43:31.146Z,1.88
2023-04-30T10:45:58.744Z,1.40
2023-04-30T10:48:26.760Z,1.60
2023-04-30T10:50:56.076Z,1.40
2023-04-30T10:53:23.055Z,1.90
2023-04-30T10:56:08.813Z,1.30
2023-04-30T10:58:37.506Z,1.52
2023-04-30T11:01:08.422Z,1.35
2023-04-30T11:03:36.045Z,1.55
2023-04-30T11:06:12.592Z,1.10
2023-04-30T11:08:43.208Z,1.50
2023-04-30T11:11:11.264Z,1.40
2023-04-30T11:13:59.180Z,1.00
2023-04-30T11:16:34.697Z,1.60
2023-04-30T11:19:13.355Z,1.75
2023-04-30T11:21:40.869Z,1.33
2023-04-30T11:24:07.617Z,1.10
2023-04-30T11:27:19.195Z,1.33
2023-04-30T11:29:46.882Z,1.17
2023-04-30T11:32:13.645Z,1.30
2023-04-30T11:34:42.966Z,1.75
2023-04-30T11:37:13.764Z,1.45
2023-04-30T11:39:41.753Z,1.63
2023-04-30T11:42:08.495Z,1.20
2023-04-30T11:44:34.861Z,1.25
2023-04-30T11:47:01.768Z,1.35
2023-04-30T11:49:28.602Z,1.15
2023-04-30T11:51:55.152Z,1.02
2023-04-30T11:54:21.538Z,1.25
2023-04-30T11:56:48.933Z,1.35
2023-04-30T11:59:16.467Z,1.23
2023-04-30T12:01:43.513Z,0.90
2023-04-30T12:04:10.295Z,1.20
2023-04-30T12:06:36.881Z,1.20
2023-04-30T12:09:07.173Z,1.17
2023-04-30T12:11:34.486Z,1.02
2023-04-30T12:14:05.149Z,1.67
2023-04-30T12:16:45.911Z,1.05
2023-04-30T12:19:12.969Z,1.00
2023-04-30T12:21:41.104Z,1.40
2023-04-30T12:24:08.138Z,0.90
2023-04-30T12:26:39.997Z,0.90
2023-04-30T12:29:14.327Z,1.23
2023-04-30T12:31:42.037Z,1.00
2023-04-30T12:34:12.849Z,0.90
2023-04-30T12:36:44.184Z,1.00
2023-04-30T12:39:13.296Z,1.23
2023-04-30T12:41:48.165Z,1.08
2023-04-30T12:44:24.637Z,0.70
2023-04-30T12:47:00.766Z,0.80
2023-04-30T12:49:29.911Z,0.93
2023-04-30T12:52:07.334Z,0.90
2023-04-30T12:54:34.578Z,0.80
2023-04-30T12:57:07.423Z,0.80
2023-04-30T12:59:53.938Z,0.90
2023-04-30T13:02:23.937Z,0.70
2023-04-30T13:04:51.064Z,0.80
2023-04-30T13:07:17.474Z,0.90
2023-04-30T13:09:43.794Z,0.90
2023-04-30T13:12:10.279Z,0.70
2023-04-30T13:14:36.647Z,0.80
2023-04-30T13:17:05.740Z,0.77
2023-04-30T13:22:29.417Z,0.90
2023-04-30T13:24:55.863Z,0.80
2023-04-30T13:27:22.368Z,0.60
2023-04-30T13:29:48.847Z,0.88
2023-04-30T13:32:15.833Z,1.00
2023-04-30T13:34:42.127Z,0.70
2023-04-30T13:37:08.791Z,1.10
2023-04-30T13:39:35.163Z,0.90
2023-04-30T13:42:01.667Z,0.68
2023-04-30T13:44:28.031Z,1.00
2023-04-30T13:46:55.674Z,0.90
2023-04-30T13:49:22.197Z,0.80
2023-04-30T13:51:48.580Z,1.00
2023-04-30T13:54:14.969Z,0.93
2023-04-30T13:56:41.288Z,0.77
2023-04-30T13:59:07.649Z,0.60
2023-04-30T14:01:34.205Z,0.80
2023-04-30T14:04:01.901Z,0.77
2023-04-30T14:06:29.348Z,0.65
2023-04-30T14:08:56.109Z,0.80
2023-04-30T14:11:22.505Z,0.60
2023-04-30T14:13:48.842Z,0.70
2023-04-30T14:16:15.816Z,0.80
2023-04-30T14:18:42.509Z,0.70
2023-04-30T14:21:08.907Z,0.73
2023-04-30T14:23:35.215Z,0.60
2023-04-30T14:26:01.717Z,0.70
2023-04-30T14:28:28.001Z,0.60
2023-04-30T14:30:54.702Z,0.77
2023-04-30T14:33:21.264Z,0.85
2023-04-30T14:35:47.779Z,0.82
2023-04-30T14:38:14.956Z,0.70
2023-04-30T14:40:43.338Z,0.80
2023-04-30T14:43:09.743Z,0.60
2023-04-30T14:45:36.158Z,0.70
2023-04-30T14:48:05.282Z,0.43
2023-04-30T14:50:32.371Z,0.60
2023-04-30T14:52:58.826Z,0.60
2023-04-30T14:55:25.222Z,0.70
2023-04-30T14:57:51.643Z,0.75
2023-04-30T15:00:18.105Z,0.50
2023-04-30T15:02:44.573Z,0.60
2023-04-30T15:05:11.417Z,1.05
2023-04-30T15:07:37.781Z,0.55
2023-04-30T15:10:05.605Z,0.45
2023-04-30T15:12:32.194Z,0.57
2023-04-30T15:14:58.583Z,0.70
2023-04-30T15:17:25.275Z,0.60
2023-04-30T15:19:51.733Z,0.52
2023-04-30T15:22:18.457Z,0.50
2023-04-30T15:24:44.826Z,0.70
2023-04-30T15:27:11.590Z,0.73
2023-04-30T15:29:40.151Z,0.70
2023-04-30T15:32:06.485Z,0.63
2023-04-30T15:34:32.924Z,0.70
2023-04-30T15:36:59.321Z,0.60
2023-04-30T15:39:26.750Z,0.60
2023-04-30T15:41:53.092Z,0.50
2023-04-30T15:44:19.392Z,0.65
2023-04-30T15:46:45.775Z,0.70
2023-04-30T15:49:12.160Z,0.60
2023-04-30T15:51:38.505Z,0.60
2023-04-30T15:54:07.233Z,0.60
2023-04-30T15:56:36.881Z,2.40
2023-04-30T15:59:03.428Z,5.57
2023-04-30T16:01:29.813Z,9.27
2023-04-30T16:03:56.376Z,3.03
2023-04-30T16:06:23.361Z,2.40
2023-04-30T16:08:52.392Z,11.02
2023-04-30T16:11:19.630Z,1.35
2023-04-30T16:13:47.223Z,0.65
2023-04-30T16:16:13.822Z,0.60
2023-04-30T16:18:40.227Z,0.68
2023-04-30T16:21:09.195Z,0.60
2023-04-30T16:23:36.159Z,0.40
2023-04-30T16:26:02.890Z,0.60
2023-04-30T16:28:29.359Z,0.70
2023-04-30T16:33:22.378Z,0.65
2023-04-30T16:35:48.754Z,0.80
2023-04-30T16:38:15.176Z,0.60
2023-04-30T16:40:41.498Z,0.60
2023-04-30T16:43:08.053Z,0.52
2023-04-30T16:45:34.620Z,0.60
2023-04-30T16:48:01.317Z,0.60
2023-04-30T16:50:27.793Z,0.60
2023-04-30T16:52:54.469Z,0.98
2023-04-30T16:55:20.935Z,0.70
2023-04-30T16:57:47.574Z,0.52
2023-04-30T17:00:15.014Z,1.27
2023-04-30T17:02:42.500Z,1.10
2023-04-30T17:05:09.791Z,0.90
2023-04-30T17:07:36.080Z,0.80
2023-04-30T17:10:02.556Z,0.70
2023-04-30T17:12:28.846Z,0.60
2023-04-30T17:14:55.235Z,0.70
2023-04-30T17:17:21.688Z,0.60
2023-04-30T17:19:48.010Z,0.80
2023-04-30T17:22:15.990Z,0.73
2023-04-30T17:24:42.616Z,0.75
2023-04-30T17:27:09.037Z,0.80
2023-04-30T17:29:35.332Z,0.93
2023-04-30T17:32:02.015Z,0.75
2023-04-30T17:34:28.345Z,0.70
2023-04-30T17:36:54.753Z,0.70
2023-04-30T17:39:21.090Z,0.88
2023-04-30T17:41:48.553Z,0.77
2023-04-30T17:44:17.832Z,0.90
2023-04-30T17:46:44.751Z,0.70
2023-04-30T17:49:11.100Z,0.80
2023-04-30T17:51:37.674Z,0.68
2023-04-30T17:54:05.276Z,0.88
2023-04-30T17:56:32.131Z,0.68
2023-04-30T17:58:59.725Z,0.90
2023-04-30T18:01:26.777Z,0.90
2023-04-30T18:03:53.559Z,0.77
2023-04-30T18:06:20.045Z,0.70
2023-04-30T18:08:46.369Z,0.85
2023-04-30T18:11:13.010Z,0.90
2023-04-30T18:13:39.728Z,0.90
2023-04-30T18:16:06.150Z,0.88
2023-04-30T18:18:32.491Z,1.10
2023-04-30T18:20:59.961Z,0.85
2023-04-30T18:23:26.684Z,0.70
2023-04-30T18:25:53.513Z,1.40
2023-04-30T18:28:19.884Z,0.90
2023-04-30T18:30:46.199Z,0.90
2023-04-30T18:33:12.601Z,1.00
2023-04-30T18:35:39.032Z,0.93
2023-04-30T18:38:07.923Z,1.02
2023-04-30T18:40:34.497Z,0.88
2023-04-30T18:43:00.848Z,0.90
2023-04-30T18:45:28.199Z,1.00
2023-04-30T18:47:54.601Z,0.98
2023-04-30T18:50:21.502Z,0.88
2023-04-30T18:52:47.877Z,0.80
2023-04-30T18:55:14.488Z,1.00
2023-04-30T18:57:43.043Z,0.82
2023-04-30T19:00:10.377Z,1.08
2023-04-30T19:02:36.805Z,0.90
2023-04-30T19:05:03.583Z,1.00
2023-04-30T19:07:29.966Z,1.05
2023-04-30T19:09:56.647Z,1.00
2023-04-30T19:12:23.241Z,1.10
2023-04-30T19:14:49.725Z,0.90
2023-04-30T19:17:17.568Z,1.10
2023-04-30T19:19:44.748Z,0.80
2023-04-30T19:22:11.631Z,1.08
2023-04-30T19:24:38.061Z,0.90
2023-04-30T19:27:04.549Z,1.05
2023-04-30T19:29:31.301Z,1.23
2023-04-30T19:31:59.276Z,1.30
2023-04-30T19:34:28.848Z,1.20
2023-04-30T19:36:55.374Z,1.27
2023-04-30T19:39:21.714Z,1.10
2023-04-30T19:41:48.546Z,1.63
2023-04-30T19:44:18.137Z,1.58
2023-04-30T19:46:44.587Z,1.50
2023-04-30T19:49:11.257Z,1.10
2023-04-30T19:51:37.565Z,1.25
2023-04-30T19:54:03.907Z,1.10
2023-04-30T19:56:31.868Z,1.30
2023-04-30T19:58:58.644Z,1.20
2023-04-30T20:01:25.023Z,1.40
2023-04-30T20:03:52.117Z,1.20
2023-04-30T20:06:19.468Z,1.45
2023-04-30T20:08:45.840Z,1.10
2023-04-30T20:11:12.182Z,1.40
2023-04-30T20:13:38.569Z,1.20
2023-04-30T20:16:05.186Z,1.30
2023-04-30T20:18:32.265Z,1.45
2023-04-30T20:20:58.679Z,1.52
2023-04-30T20:23:25.046Z,1.60
2023-04-30T20:25:51.369Z,1.30
2023-04-30T20:28:18.356Z,1.27
2023-04-30T20:30:44.783Z,1.30
2023-04-30T20:33:14.970Z,1.30
2023-04-30T20:35:44.008Z,1.60
2023-04-30T20:38:10.660Z,1.35
2023-04-30T20:40:39.995Z,1.30
2023-04-30T20:43:10.906Z,1.50
2023-04-30T20:45:37.490Z,1.40
2023-04-30T20:48:04.092Z,1.45
2023-04-30T20:50:30.610Z,1.88
2023-04-30T20:52:56.907Z,1.40
2023-04-30T20:55:23.213Z,1.55
2023-04-30T20:57:50.073Z,1.40
2023-04-30T21:00:16.541Z,1.48
2023-04-30T21:02:43.031Z,1.30
2023-04-30T21:05:10.055Z,1.90
2023-04-30T21:07:36.412Z,1.58
2023-04-30T21:10:07.940Z,1.40
2023-04-30T21:12:34.704Z,1.50
2023-04-30T21:15:01.216Z,1.27
2023-04-30T21:17:28.208Z,1.48
2023-04-30T21:19:56.611Z,1.52
2023-04-30T21:22:23.875Z,1.38
2023-04-30T21:24:53.311Z,1.20
2023-04-30T21:27:20.672Z,1.75
2023-04-30T21:29:47.728Z,1.58
2023-04-30T21:32:14.092Z,1.63
2023-04-30T21:34:40.447Z,1.50
2023-04-30T21:37:06.807Z,1.63
2023-04-30T21:39:33.110Z,1.60
2023-04-30T21:42:00.056Z,1.40
2023-04-30T21:44:26.429Z,1.50
2023-04-30T21:46:52.874Z,1.55
2023-04-30T21:49:19.256Z,1.65
2023-04-30T21:51:45.611Z,1.60
2023-04-30T21:54:12.025Z,1.75
2023-04-30T21:56:39.714Z,1.85
2023-04-30T21:59:06.609Z,2.00
2023-04-30T22:01:32.928Z,1.98
2023-04-30T22:03:59.577Z,1.90
2023-04-30T22:06:25.974Z,1.60
2023-04-30T22:08:52.326Z,1.92
2023-04-30T22:11:19.003Z,1.85
2023-04-30T22:13:45.346Z,1.67
2023-04-30T22:16:12.207Z,1.80
2023-04-30T22:18:39.676Z,1.73
2023-04-30T22:21:06.580Z,1.90
2023-04-30T22:23:32.987Z,1.40
2023-04-30T22:26:00.031Z,1.88
2023-04-30T22:28:26.439Z,1.92
2023-04-30T22:30:59.553Z,1.58
2023-04-30T22:33:26.023Z,2.00
2023-04-30T22:35:52.452Z,1.63
2023-04-30T22:38:19.738Z,1.92
2023-04-30T22:40:46.110Z,1.88
2023-04-30T22:43:13.444Z,1.83
2023-04-30T22:45:40.446Z,2.15
2023-04-30T22:48:09.632Z,1.83
2023-04-30T22:50:36.489Z,2.17
2023-04-30T22:53:02.889Z,1.83
2023-04-30T22:55:30.846Z,1.90
2023-04-30T22:57:59.797Z,1.85
2023-04-30T23:00:27.677Z,1.80
2023-04-30T23:02:54.383Z,2.00
2023-04-30T23:05:20.765Z,1.80
2023-04-30T23:07:49.412Z,2.05
2023-04-30T23:10:16.381Z,2.10
2023-04-30T23:12:42.817Z,1.75
2023-04-30T23:15:09.727Z,1.80
2023-04-30T23:17:36.187Z,1.90
2023-04-30T23:20:03.162Z,1.70
2023-04-30T23:22:29.613Z,1.70
2023-04-30T23:24:57.063Z,1.60
2023-04-30T23:27:24.242Z,1.55
2023-04-30T23:29:50.665Z,1.73
2023-04-30T23:32:17.176Z,1.67
2023-04-30T23:34:43.506Z,1.55
2023-04-30T23:37:09.805Z,1.88
2023-04-30T23:39:36.597Z,1.90
2023-04-30T23:42:02.915Z,1.73
2023-04-30T23:44:32.208Z,1.60
2023-04-30T23:47:00.744Z,1.67
2023-04-30T23:49:27.265Z,1.80
2023-04-30T23:51:53.621Z,1.70
2023-04-30T23:54:20.844Z,1.83
2023-04-30T23:56:47.217Z,1.65
2023-04-30T23:59:13.795Z,1.73
